createdAt,value
2023-04-06T00:00:35.928Z,0.00
2023-04-06T00:01:35.296Z,0.00
2023-04-06T00:02:35.885Z,0.00
2023-04-06T00:03:35.441Z,0.00
2023-04-06T00:04:35.878Z,0.00
2023-04-06T00:05:36.634Z,0.00
2023-04-06T00:06:35.864Z,0.00
2023-04-06T00:07:35.833Z,0.00
2023-04-06T00:08:35.838Z,0.00
2023-04-06T00:09:35.136Z,0.00
2023-04-06T00:10:35.138Z,0.00
2023-04-06T00:11:36.082Z,0.00
2023-04-06T00:12:35.791Z,0.00
2023-04-06T00:13:35.100Z,0.00
2023-04-06T00:14:35.777Z,0.00
2023-04-06T00:15:36.063Z,0.00
2023-04-06T00:16:35.080Z,0.00
2023-04-06T00:17:35.800Z,0.00
2023-04-06T00:18:35.736Z,0.00
2023-04-06T00:19:35.729Z,0.00
2023-04-06T00:20:35.713Z,0.00
2023-04-06T00:21:35.031Z,0.00
2023-04-06T00:22:35.008Z,0.00
2023-04-06T00:23:35.723Z,0.00
2023-04-06T00:24:35.764Z,0.00
2023-04-06T00:25:35.666Z,0.00
2023-04-06T00:26:35.688Z,0.00
2023-04-06T00:27:34.965Z,0.00
2023-04-06T00:28:35.656Z,0.00
2023-04-06T00:29:34.923Z,0.00
2023-04-06T00:30:35.614Z,0.00
2023-04-06T00:31:35.642Z,0.00
2023-04-06T00:32:35.617Z,0.00
2023-04-06T00:33:36.834Z,0.00
2023-04-06T00:34:34.886Z,0.00
2023-04-06T00:35:34.899Z,0.00
2023-04-06T00:36:36.813Z,0.00
2023-04-06T00:37:34.858Z,0.00
2023-04-06T00:38:35.530Z,0.00
2023-04-06T00:39:34.817Z,0.00
2023-04-06T00:40:34.832Z,0.00
2023-04-06T00:41:34.805Z,0.00
2023-04-06T00:42:34.849Z,0.00
2023-04-06T00:43:34.783Z,0.00
2023-04-06T00:44:34.799Z,0.00
2023-04-06T00:45:34.768Z,0.00
2023-04-06T00:46:34.824Z,0.00
2023-04-06T00:47:34.792Z,0.00
2023-04-06T00:48:35.418Z,0.00
2023-04-06T00:49:35.410Z,0.00
2023-04-06T00:50:34.715Z,0.00
2023-04-06T00:51:34.718Z,0.00
2023-04-06T00:52:35.697Z,0.00
2023-04-06T00:53:35.371Z,0.00
2023-04-06T00:54:35.363Z,0.00
2023-04-06T00:55:35.345Z,0.00
2023-04-06T00:56:34.662Z,0.00
2023-04-06T00:57:34.648Z,0.00
2023-04-06T00:58:35.309Z,0.00
2023-04-06T00:59:35.331Z,0.00
2023-04-06T01:00:34.636Z,0.00
2023-04-06T01:01:35.360Z,0.00
2023-04-06T01:02:35.259Z,0.00
2023-04-06T01:03:35.285Z,0.00
2023-04-06T01:04:34.576Z,0.00
2023-04-06T01:05:34.554Z,0.00
2023-04-06T01:06:34.573Z,0.00
2023-04-06T01:07:35.202Z,0.00
2023-04-06T01:08:35.204Z,0.00
2023-04-06T01:09:34.518Z,0.00
2023-04-06T01:10:35.184Z,0.00
2023-04-06T01:11:35.168Z,0.00
2023-04-06T01:12:35.161Z,0.00
2023-04-06T01:13:35.151Z,0.00
2023-04-06T01:14:34.447Z,0.00
2023-04-06T01:15:35.150Z,0.00
2023-04-06T01:16:34.449Z,0.00
2023-04-06T01:17:34.488Z,0.00
2023-04-06T01:18:35.100Z,0.00
2023-04-06T01:19:35.085Z,0.00
2023-04-06T01:20:35.089Z,0.00
2023-04-06T01:21:35.064Z,0.00
2023-04-06T01:22:34.379Z,0.00
2023-04-06T01:23:35.057Z,0.00
2023-04-06T01:24:35.041Z,0.00
2023-04-06T01:25:35.024Z,0.00
2023-04-06T01:26:35.005Z,0.00
2023-04-06T01:27:34.984Z,0.00
2023-04-06T01:28:34.306Z,0.00
2023-04-06T01:29:34.978Z,0.00
2023-04-06T01:30:34.973Z,0.00
2023-04-06T01:31:34.963Z,0.00
2023-04-06T01:32:34.958Z,0.00
2023-04-06T01:33:34.246Z,0.00
2023-04-06T01:34:34.926Z,0.00
2023-04-06T01:35:34.996Z,0.00
2023-04-06T01:36:34.907Z,0.00
2023-04-06T01:37:34.876Z,0.00
2023-04-06T01:38:34.202Z,0.00
2023-04-06T01:39:34.875Z,0.00
2023-04-06T01:40:34.877Z,0.00
2023-04-06T01:41:34.164Z,0.00
2023-04-06T01:42:34.822Z,0.00
2023-04-06T01:43:34.832Z,0.00
2023-04-06T01:44:34.164Z,0.00
2023-04-06T01:45:34.178Z,0.00
2023-04-06T01:46:34.805Z,0.00
2023-04-06T01:47:34.215Z,0.00
2023-04-06T01:48:34.775Z,0.00
2023-04-06T01:49:34.776Z,0.00
2023-04-06T01:50:34.084Z,0.00
2023-04-06T01:51:34.772Z,0.00
2023-04-06T01:52:34.056Z,0.00
2023-04-06T01:53:34.055Z,0.00
2023-04-06T01:54:34.717Z,0.00
2023-04-06T01:55:34.030Z,0.00
2023-04-06T01:56:34.695Z,0.00
2023-04-06T01:57:34.004Z,0.00
2023-04-06T01:58:34.011Z,0.00
2023-04-06T01:59:34.712Z,0.00
2023-04-06T02:00:34.699Z,0.00
2023-04-06T02:01:34.646Z,0.00
2023-04-06T02:02:34.028Z,0.00
2023-04-06T02:03:34.610Z,0.00
2023-04-06T02:04:34.614Z,0.00
2023-04-06T02:05:34.601Z,0.00
2023-04-06T02:06:33.919Z,0.00
2023-04-06T02:07:33.889Z,0.00
2023-04-06T02:08:33.898Z,0.00
2023-04-06T02:09:34.561Z,0.00
2023-04-06T02:10:34.556Z,0.00
2023-04-06T02:11:34.541Z,0.00
2023-04-06T02:12:33.848Z,0.00
2023-04-06T02:13:33.861Z,0.00
2023-04-06T02:14:33.819Z,0.00
2023-04-06T02:15:33.838Z,0.00
2023-04-06T02:16:33.881Z,0.00
2023-04-06T02:17:34.504Z,0.00
2023-04-06T02:18:34.462Z,0.00
2023-04-06T02:19:33.787Z,0.00
2023-04-06T02:20:33.773Z,0.00
2023-04-06T02:21:33.770Z,0.00
2023-04-06T02:22:34.423Z,0.00
2023-04-06T02:23:33.768Z,0.00
2023-04-06T02:24:34.365Z,0.00
2023-04-06T02:25:33.720Z,0.00
2023-04-06T02:26:33.702Z,0.00
2023-04-06T02:27:33.694Z,0.00
2023-04-06T02:28:33.694Z,0.00
2023-04-06T02:29:34.353Z,0.00
2023-04-06T02:30:34.343Z,0.00
2023-04-06T02:31:33.751Z,0.00
2023-04-06T02:32:34.348Z,0.00
2023-04-06T02:33:33.665Z,0.00
2023-04-06T02:34:34.300Z,0.00
2023-04-06T02:35:34.305Z,0.00
2023-04-06T02:36:34.281Z,0.00
2023-04-06T02:37:34.273Z,0.00
2023-04-06T02:38:34.239Z,0.00
2023-04-06T02:39:34.251Z,0.00
2023-04-06T02:40:34.251Z,0.00
2023-04-06T02:41:34.232Z,0.00
2023-04-06T02:42:34.216Z,0.00
2023-04-06T02:43:34.192Z,0.00
2023-04-06T02:44:34.196Z,0.00
2023-04-06T02:45:33.570Z,0.00
2023-04-06T02:46:33.483Z,0.00
2023-04-06T02:47:34.192Z,0.00
2023-04-06T02:48:34.140Z,0.00
2023-04-06T02:49:33.470Z,0.00
2023-04-06T02:50:34.144Z,0.00
2023-04-06T02:51:34.137Z,0.00
2023-04-06T02:52:34.114Z,0.00
2023-04-06T02:53:34.084Z,0.00
2023-04-06T02:54:33.409Z,0.00
2023-04-06T02:55:33.401Z,0.00
2023-04-06T02:56:34.073Z,0.00
2023-04-06T02:57:33.374Z,0.00
2023-04-06T02:58:34.032Z,0.00
2023-04-06T02:59:34.114Z,0.00
2023-04-06T03:00:33.356Z,0.00
2023-04-06T03:01:33.402Z,0.00
2023-04-06T03:02:34.057Z,0.00
2023-04-06T03:03:33.464Z,0.00
2023-04-06T03:04:33.994Z,0.00
2023-04-06T03:05:33.976Z,0.00
2023-04-06T03:06:33.299Z,0.00
2023-04-06T03:07:33.310Z,0.00
2023-04-06T03:08:33.933Z,0.00
2023-04-06T03:09:33.934Z,0.00
2023-04-06T03:10:33.921Z,0.00
2023-04-06T03:11:33.925Z,0.00
2023-04-06T03:12:33.231Z,0.00
2023-04-06T03:13:33.249Z,0.00
2023-04-06T03:14:33.890Z,0.00
2023-04-06T03:15:33.915Z,0.00
2023-04-06T03:16:33.177Z,0.00
2023-04-06T03:17:33.304Z,0.00
2023-04-06T03:18:33.164Z,0.00
2023-04-06T03:19:33.835Z,0.00
2023-04-06T03:20:33.149Z,0.00
2023-04-06T03:21:33.151Z,0.00
2023-04-06T03:22:33.803Z,0.00
2023-04-06T03:23:33.116Z,0.00
2023-04-06T03:24:34.062Z,0.00
2023-04-06T03:25:33.075Z,0.00
2023-04-06T03:26:33.754Z,0.00
2023-04-06T03:27:33.098Z,0.00
2023-04-06T03:28:33.713Z,0.00
2023-04-06T03:29:33.744Z,0.00
2023-04-06T03:30:33.033Z,0.00
2023-04-06T03:31:33.068Z,0.00
2023-04-06T03:32:33.074Z,0.00
2023-04-06T03:33:33.046Z,0.00
2023-04-06T03:34:32.985Z,0.00
2023-04-06T03:35:33.682Z,0.00
2023-04-06T03:36:33.643Z,0.00
2023-04-06T03:37:32.948Z,0.00
2023-04-06T03:38:33.617Z,0.00
2023-04-06T03:39:33.612Z,0.00
2023-04-06T03:40:33.603Z,0.00
2023-04-06T03:41:33.607Z,0.00
2023-04-06T03:42:33.574Z,0.00
2023-04-06T03:43:32.912Z,0.00
2023-04-06T03:44:32.925Z,0.00
2023-04-06T03:45:33.548Z,0.00
2023-04-06T03:46:32.912Z,0.00
2023-04-06T03:47:33.599Z,0.00
2023-04-06T03:48:32.879Z,0.00
2023-04-06T03:49:32.820Z,0.00
2023-04-06T03:50:32.819Z,0.00
2023-04-06T03:51:32.797Z,0.00
2023-04-06T03:52:33.474Z,0.00
2023-04-06T03:53:32.806Z,0.00
2023-04-06T03:54:32.775Z,0.00
2023-04-06T03:55:32.757Z,0.00
2023-04-06T03:56:34.698Z,0.00
2023-04-06T03:57:32.733Z,0.00
2023-04-06T03:58:33.399Z,0.00
2023-04-06T03:59:32.783Z,0.00
2023-04-06T04:00:32.706Z,0.00
2023-04-06T04:01:33.404Z,0.00
2023-04-06T04:02:32.770Z,0.00
2023-04-06T04:03:32.758Z,0.00
2023-04-06T04:04:32.698Z,0.00
2023-04-06T04:05:32.639Z,0.00
2023-04-06T04:06:32.647Z,0.00
2023-04-06T04:07:33.314Z,0.00
2023-04-06T04:08:36.370Z,0.00
2023-04-06T04:09:33.288Z,0.00
2023-04-06T04:10:33.273Z,0.00
2023-04-06T04:11:33.273Z,0.00
2023-04-06T04:12:32.676Z,0.00
2023-04-06T04:13:32.571Z,0.00
2023-04-06T04:14:32.569Z,0.00
2023-04-06T04:15:32.562Z,0.00
2023-04-06T04:16:32.556Z,0.00
2023-04-06T04:17:33.267Z,0.00
2023-04-06T04:18:33.192Z,0.00
2023-04-06T04:19:33.177Z,4.00
2023-04-06T04:20:33.178Z,0.00
2023-04-06T04:21:33.160Z,0.00
2023-04-06T04:22:33.144Z,4.00
2023-04-06T04:23:33.260Z,0.00
2023-04-06T04:24:33.110Z,0.00
2023-04-06T04:25:32.465Z,0.00
2023-04-06T04:26:33.107Z,4.00
2023-04-06T04:27:33.109Z,4.00
2023-04-06T04:28:32.401Z,8.00
2023-04-06T04:29:32.407Z,8.00
2023-04-06T04:30:32.375Z,8.00
2023-04-06T04:31:33.074Z,8.00
2023-04-06T04:32:32.412Z,8.00
2023-04-06T04:33:32.385Z,12.00
2023-04-06T04:34:32.368Z,16.00
2023-04-06T04:35:33.059Z,20.00
2023-04-06T04:36:33.013Z,24.00
2023-04-06T04:37:33.004Z,24.00
2023-04-06T04:38:32.988Z,32.00
2023-04-06T04:39:32.964Z,36.00
2023-04-06T04:40:32.967Z,40.00
2023-04-06T04:41:32.297Z,48.00
2023-04-06T04:42:32.960Z,52.00
2023-04-06T04:43:33.077Z,60.00
2023-04-06T04:44:32.262Z,68.00
2023-04-06T04:45:32.950Z,76.00
2023-04-06T04:46:32.219Z,88.00
2023-04-06T04:47:32.324Z,100.00
2023-04-06T04:48:32.891Z,112.00
2023-04-06T04:49:32.223Z,124.00
2023-04-06T04:50:32.192Z,144.00
2023-04-06T04:51:32.867Z,156.00
2023-04-06T04:52:32.848Z,172.00
2023-04-06T04:53:32.836Z,192.00
2023-04-06T04:54:32.152Z,208.00
2023-04-06T04:55:32.120Z,228.00
2023-04-06T04:56:32.138Z,248.00
2023-04-06T04:57:32.791Z,272.00
2023-04-06T04:58:32.096Z,296.00
2023-04-06T04:59:32.842Z,320.00
2023-04-06T05:00:32.761Z,344.00
2023-04-06T05:01:40.887Z,372.00
2023-04-06T05:02:33.075Z,400.00
2023-04-06T05:03:32.798Z,432.00
2023-04-06T05:04:32.050Z,464.00
2023-04-06T05:05:32.018Z,496.00
2023-04-06T05:06:32.695Z,532.00
2023-04-06T05:07:32.007Z,568.00
2023-04-06T05:08:32.678Z,604.00
2023-04-06T05:09:32.816Z,640.00
2023-04-06T05:10:32.661Z,684.00
2023-04-06T05:11:31.981Z,728.00
2023-04-06T05:12:32.638Z,768.00
2023-04-06T05:13:32.632Z,816.00
2023-04-06T05:14:31.969Z,860.00
2023-04-06T05:15:32.620Z,908.00
2023-04-06T05:16:31.902Z,952.00
2023-04-06T05:17:32.607Z,1000.00
2023-04-06T05:18:32.578Z,1052.00
2023-04-06T05:19:31.887Z,1104.00
2023-04-06T05:20:32.561Z,1156.00
2023-04-06T05:21:32.540Z,1216.00
2023-04-06T05:22:31.843Z,1276.00
2023-04-06T05:23:31.839Z,1344.00
2023-04-06T05:24:33.801Z,1416.00
2023-04-06T05:25:31.797Z,1488.00
2023-04-06T05:26:31.797Z,1560.00
2023-04-06T05:27:32.476Z,1636.00
2023-04-06T05:28:32.471Z,1720.00
2023-04-06T05:29:31.800Z,1808.00
2023-04-06T05:30:31.756Z,1912.00
2023-04-06T05:31:32.465Z,2100.00
2023-04-06T05:32:32.496Z,2284.00
2023-04-06T05:33:31.736Z,2400.00
2023-04-06T05:34:31.742Z,2500.00
2023-04-06T05:35:31.733Z,2608.00
2023-04-06T05:36:31.692Z,2720.00
2023-04-06T05:37:32.369Z,2844.00
2023-04-06T05:38:31.672Z,2976.00
2023-04-06T05:39:32.328Z,3148.00
2023-04-06T05:40:31.646Z,3328.00
2023-04-06T05:41:31.635Z,3532.00
2023-04-06T05:42:32.321Z,3648.00
2023-04-06T05:43:31.605Z,3704.00
2023-04-06T05:44:31.610Z,3768.00
2023-04-06T05:45:31.603Z,3864.00
2023-04-06T05:46:31.598Z,4052.00
2023-04-06T05:47:31.597Z,4324.00
2023-04-06T05:48:32.246Z,4564.00
2023-04-06T05:49:31.564Z,4740.00
2023-04-06T05:50:32.219Z,5036.00
2023-04-06T05:51:31.534Z,5240.00
2023-04-06T05:52:31.506Z,5400.00
2023-04-06T05:53:31.503Z,6120.00
2023-04-06T05:54:32.165Z,6896.00
2023-04-06T05:55:31.522Z,6936.00
2023-04-06T05:56:32.165Z,8464.00
2023-04-06T05:57:31.466Z,9092.00
2023-04-06T05:58:31.444Z,8728.00
2023-04-06T05:59:31.579Z,7172.00
2023-04-06T06:00:32.113Z,6984.00
2023-04-06T06:01:32.107Z,8616.00
2023-04-06T06:02:32.189Z,8612.00
2023-04-06T06:03:32.085Z,7352.00
2023-04-06T06:04:31.454Z,6780.00
2023-04-06T06:05:32.066Z,6908.00
2023-04-06T06:06:32.055Z,6776.00
2023-04-06T06:07:32.060Z,6420.00
2023-04-06T06:08:31.348Z,7420.00
2023-04-06T06:09:31.339Z,7688.00
2023-04-06T06:10:31.339Z,7400.00
2023-04-06T06:11:32.012Z,7696.00
2023-04-06T06:12:31.300Z,8480.00
2023-04-06T06:13:31.974Z,7968.00
2023-04-06T06:14:31.947Z,7252.00
2023-04-06T06:15:31.287Z,6532.00
2023-04-06T06:16:31.319Z,6528.00
2023-04-06T06:17:32.004Z,7032.00
2023-04-06T06:18:31.919Z,6828.00
2023-04-06T06:19:31.257Z,7380.00
2023-04-06T06:20:31.897Z,7968.00
2023-04-06T06:21:31.200Z,7896.00
2023-04-06T06:22:31.879Z,7852.00
2023-04-06T06:23:31.866Z,7416.00
2023-04-06T06:24:31.836Z,7652.00
2023-04-06T06:25:31.898Z,7840.00
2023-04-06T06:26:31.146Z,7824.00
2023-04-06T06:27:31.832Z,8012.00
2023-04-06T06:28:31.141Z,7400.00
2023-04-06T06:29:31.794Z,6920.00
2023-04-06T06:30:31.825Z,6504.00
2023-04-06T06:31:31.124Z,6360.00
2023-04-06T06:32:31.146Z,6180.00
2023-04-06T06:33:31.762Z,6312.00
2023-04-06T06:34:31.134Z,6508.00
2023-04-06T06:35:31.071Z,6584.00
2023-04-06T06:36:31.041Z,6604.00
2023-04-06T06:37:31.402Z,6616.00
2023-04-06T06:38:31.044Z,6636.00
2023-04-06T06:39:31.051Z,6672.00
2023-04-06T06:40:31.076Z,6712.00
2023-04-06T06:41:30.990Z,6752.00
2023-04-06T06:42:31.682Z,6796.00
2023-04-06T06:43:31.003Z,6840.00
2023-04-06T06:44:30.986Z,6904.00
2023-04-06T06:45:30.972Z,6936.00
2023-04-06T06:46:31.640Z,6980.00
2023-04-06T06:47:31.771Z,7008.00
2023-04-06T06:48:31.601Z,7040.00
2023-04-06T06:49:30.921Z,7096.00
2023-04-06T06:50:30.885Z,7136.00
2023-04-06T06:51:30.918Z,7172.00
2023-04-06T06:52:31.570Z,7216.00
2023-04-06T06:53:31.577Z,7264.00
2023-04-06T06:54:31.525Z,7312.00
2023-04-06T06:55:30.843Z,7388.00
2023-04-06T06:56:30.839Z,7468.00
2023-04-06T06:57:31.533Z,7544.00
2023-04-06T06:58:31.587Z,7608.00
2023-04-06T06:59:31.522Z,7684.00
2023-04-06T07:00:30.825Z,7816.00
2023-04-06T07:01:31.562Z,8020.00
2023-04-06T07:02:30.794Z,8436.00
2023-04-06T07:03:30.762Z,9760.00
2023-04-06T07:04:31.478Z,12916.00
2023-04-06T07:05:31.426Z,14976.00
2023-04-06T07:06:31.413Z,15040.00
2023-04-06T07:07:30.737Z,14720.00
2023-04-06T07:08:30.721Z,18496.00
2023-04-06T07:09:30.734Z,21376.00
2023-04-06T07:10:31.360Z,21792.00
2023-04-06T07:11:31.374Z,19072.00
2023-04-06T07:12:30.684Z,15904.00
2023-04-06T07:13:30.646Z,13040.00
2023-04-06T07:14:30.659Z,11984.00
2023-04-06T07:15:30.654Z,11720.00
2023-04-06T07:16:31.352Z,11092.00
2023-04-06T07:17:30.617Z,10288.00
2023-04-06T07:18:30.660Z,9748.00
2023-04-06T07:19:31.365Z,9460.00
2023-04-06T07:20:31.264Z,9220.00
2023-04-06T07:21:31.247Z,9148.00
2023-04-06T07:22:31.236Z,9144.00
2023-04-06T07:23:30.559Z,9180.00
2023-04-06T07:24:31.264Z,9252.00
2023-04-06T07:25:32.571Z,9772.00
2023-04-06T07:26:30.815Z,11952.00
2023-04-06T07:27:30.604Z,15360.00
2023-04-06T07:28:31.178Z,16896.00
2023-04-06T07:29:30.534Z,17408.00
2023-04-06T07:30:31.978Z,18336.00
2023-04-06T07:31:30.496Z,18720.00
2023-04-06T07:32:31.155Z,19296.00
2023-04-06T07:33:30.467Z,19360.00
2023-04-06T07:34:30.420Z,19904.00
2023-04-06T07:35:30.472Z,20768.00
2023-04-06T07:36:30.398Z,20672.00
2023-04-06T07:37:30.406Z,20800.00
2023-04-06T07:38:31.063Z,21376.00
2023-04-06T07:39:30.362Z,22400.00
2023-04-06T07:40:31.034Z,22016.00
2023-04-06T07:41:30.346Z,21568.00
2023-04-06T07:42:30.343Z,21760.00
2023-04-06T07:43:30.334Z,22368.00
2023-04-06T07:44:31.005Z,22016.00
2023-04-06T07:45:31.004Z,22240.00
2023-04-06T07:46:30.378Z,23200.00
2023-04-06T07:47:30.992Z,23328.00
2023-04-06T07:48:30.294Z,22496.00
2023-04-06T07:49:30.945Z,22048.00
2023-04-06T07:50:30.932Z,22048.00
2023-04-06T07:51:30.901Z,21632.00
2023-04-06T07:52:30.907Z,20928.00
2023-04-06T07:53:30.901Z,20352.00
2023-04-06T07:54:30.216Z,20608.00
2023-04-06T07:55:30.863Z,21952.00
2023-04-06T07:56:30.183Z,20832.00
2023-04-06T07:57:30.197Z,21664.00
2023-04-06T07:58:30.161Z,21568.00
2023-04-06T07:59:30.228Z,21824.00
2023-04-06T08:00:30.178Z,21728.00
2023-04-06T08:01:30.821Z,21152.00
2023-04-06T08:02:30.870Z,18560.00
2023-04-06T08:03:30.975Z,19264.00
2023-04-06T08:04:30.191Z,21792.00
2023-04-06T08:05:30.756Z,22656.00
2023-04-06T08:06:30.109Z,21888.00
2023-04-06T08:07:30.754Z,22112.00
2023-04-06T08:08:30.064Z,22496.00
2023-04-06T08:09:30.046Z,21952.00
2023-04-06T08:10:30.097Z,22240.00
2023-04-06T08:11:30.038Z,20736.00
2023-04-06T08:12:30.023Z,21600.00
2023-04-06T08:13:30.701Z,19808.00
2023-04-06T08:14:30.038Z,18592.00
2023-04-06T08:15:30.668Z,18784.00
2023-04-06T08:16:29.984Z,19584.00
2023-04-06T08:17:30.002Z,18016.00
2023-04-06T08:18:30.631Z,16640.00
2023-04-06T08:19:30.886Z,17184.00
2023-04-06T08:20:30.592Z,16672.00
2023-04-06T08:21:30.612Z,17312.00
2023-04-06T08:22:29.908Z,16736.00
2023-04-06T08:23:29.898Z,14592.00
2023-04-06T08:24:30.561Z,15936.00
2023-04-06T08:25:29.928Z,14976.00
2023-04-06T08:26:30.541Z,15136.00
2023-04-06T08:27:30.531Z,15104.00
2023-04-06T08:28:30.518Z,15456.00
2023-04-06T08:29:29.842Z,14404.00
2023-04-06T08:30:30.790Z,13996.00
2023-04-06T08:31:29.836Z,14084.00
2023-04-06T08:32:30.508Z,13492.00
2023-04-06T08:33:30.473Z,13284.00
2023-04-06T08:34:29.785Z,13756.00
2023-04-06T08:35:30.475Z,14208.00
2023-04-06T08:36:30.716Z,14140.00
2023-04-06T08:37:30.426Z,13360.00
2023-04-06T08:38:30.423Z,13236.00
2023-04-06T08:39:30.672Z,13916.00
2023-04-06T08:40:30.383Z,13440.00
2023-04-06T08:41:30.681Z,13660.00
2023-04-06T08:42:30.371Z,13188.00
2023-04-06T08:43:30.622Z,12796.00
2023-04-06T08:44:30.600Z,12820.00
2023-04-06T08:45:30.326Z,12928.00
2023-04-06T08:46:30.370Z,12380.00
2023-04-06T08:47:30.613Z,12088.00
2023-04-06T08:48:29.719Z,12004.00
2023-04-06T08:49:29.695Z,12084.00
2023-04-06T08:50:29.830Z,12024.00
2023-04-06T08:51:29.765Z,11756.00
2023-04-06T08:52:30.268Z,11616.00
2023-04-06T08:53:30.259Z,11388.00
2023-04-06T08:54:31.503Z,11176.00
2023-04-06T08:55:30.219Z,11048.00
2023-04-06T08:56:30.224Z,11184.00
2023-04-06T08:57:30.489Z,10652.00
2023-04-06T08:58:37.610Z,10512.00
2023-04-06T08:59:31.953Z,9912.00
2023-04-06T09:00:30.163Z,9604.00
2023-04-06T09:01:30.484Z,9232.00
2023-04-06T09:02:30.473Z,8732.00
2023-04-06T09:03:30.350Z,8276.00
2023-04-06T09:04:29.607Z,7988.00
2023-04-06T09:05:30.410Z,7668.00
2023-04-06T09:06:30.108Z,7532.00
2023-04-06T09:07:29.408Z,7320.00
2023-04-06T09:08:30.103Z,7332.00
2023-04-06T09:09:29.404Z,6992.00
2023-04-06T09:10:30.053Z,7012.00
2023-04-06T09:11:29.368Z,6872.00
2023-04-06T09:12:30.059Z,6808.00
2023-04-06T09:13:30.038Z,6708.00
2023-04-06T09:14:29.344Z,6520.00
2023-04-06T09:15:29.364Z,6484.00
2023-04-06T09:16:30.308Z,6544.00
2023-04-06T09:17:29.340Z,6436.00
2023-04-06T09:18:29.982Z,6416.00
2023-04-06T09:19:29.975Z,6272.00
2023-04-06T09:20:29.393Z,6044.00
2023-04-06T09:21:29.952Z,6096.00
2023-04-06T09:22:29.261Z,6052.00
2023-04-06T09:23:29.954Z,5960.00
2023-04-06T09:24:29.947Z,5916.00
2023-04-06T09:25:29.890Z,5880.00
2023-04-06T09:26:29.229Z,5896.00
2023-04-06T09:27:29.891Z,5800.00
2023-04-06T09:28:29.885Z,5872.00
2023-04-06T09:29:29.178Z,5776.00
2023-04-06T09:30:29.190Z,5808.00
2023-04-06T09:31:29.243Z,5716.00
2023-04-06T09:32:29.160Z,5776.00
2023-04-06T09:33:29.831Z,5788.00
2023-04-06T09:34:29.127Z,5696.00
2023-04-06T09:35:29.825Z,5684.00
2023-04-06T09:36:29.804Z,5644.00
2023-04-06T09:37:29.098Z,5728.00
2023-04-06T09:38:29.095Z,5664.00
2023-04-06T09:39:29.094Z,5596.00
2023-04-06T09:40:29.095Z,5516.00
2023-04-06T09:41:29.747Z,5452.00
2023-04-06T09:42:29.732Z,5308.00
2023-04-06T09:43:29.050Z,5444.00
2023-04-06T09:44:29.710Z,5456.00
2023-04-06T09:45:29.683Z,5432.00
2023-04-06T09:46:29.031Z,5360.00
2023-04-06T09:47:29.953Z,5408.00
2023-04-06T09:48:29.649Z,5488.00
2023-04-06T09:49:29.008Z,5472.00
2023-04-06T09:50:29.630Z,5436.00
2023-04-06T09:51:28.944Z,5504.00
2023-04-06T09:52:29.624Z,5424.00
2023-04-06T09:53:29.607Z,5416.00
2023-04-06T09:54:28.917Z,5356.00
2023-04-06T09:55:29.578Z,5312.00
2023-04-06T09:56:29.579Z,5284.00
2023-04-06T09:57:29.651Z,5232.00
2023-04-06T09:58:28.943Z,5248.00
2023-04-06T09:59:29.611Z,5144.00
2023-04-06T10:00:29.561Z,5136.00
2023-04-06T10:01:28.857Z,5088.00
2023-04-06T10:02:29.662Z,5052.00
2023-04-06T10:03:29.536Z,5036.00
2023-04-06T10:04:28.800Z,5004.00
2023-04-06T10:05:29.460Z,4968.00
2023-04-06T10:06:28.792Z,4956.00
2023-04-06T10:07:28.786Z,5036.00
2023-04-06T10:08:31.676Z,5152.00
2023-04-06T10:09:28.753Z,5188.00
2023-04-06T10:10:29.403Z,5164.00
2023-04-06T10:11:28.733Z,5216.00
2023-04-06T10:12:28.724Z,5192.00
2023-04-06T10:13:28.747Z,5144.00
2023-04-06T10:14:29.383Z,5144.00
2023-04-06T10:15:28.699Z,5144.00
2023-04-06T10:16:29.380Z,5212.00
2023-04-06T10:17:29.365Z,5148.00
2023-04-06T10:18:28.681Z,5108.00
2023-04-06T10:19:29.324Z,5140.00
2023-04-06T10:20:29.298Z,5220.00
2023-04-06T10:21:29.306Z,5284.00
2023-04-06T10:22:28.613Z,5372.00
2023-04-06T10:23:29.296Z,5588.00
2023-04-06T10:24:28.592Z,6000.00
2023-04-06T10:25:28.595Z,6492.00
2023-04-06T10:26:29.255Z,6632.00
2023-04-06T10:27:29.237Z,6432.00
2023-04-06T10:28:29.226Z,4896.00
2023-04-06T10:29:29.218Z,4664.00
2023-04-06T10:30:29.188Z,4876.00
2023-04-06T10:31:29.260Z,5020.00
2023-04-06T10:32:28.527Z,5232.00
2023-04-06T10:33:29.193Z,5384.00
2023-04-06T10:34:29.183Z,5300.00
2023-04-06T10:35:29.137Z,5516.00
2023-04-06T10:36:28.520Z,5684.00
2023-04-06T10:37:29.133Z,5924.00
2023-04-06T10:38:29.125Z,5868.00
2023-04-06T10:39:29.124Z,5988.00
2023-04-06T10:40:29.088Z,6376.00
2023-04-06T10:41:28.431Z,6720.00
2023-04-06T10:42:29.081Z,7076.00
2023-04-06T10:43:28.411Z,7500.00
2023-04-06T10:44:28.368Z,7608.00
2023-04-06T10:45:29.046Z,7412.00
2023-04-06T10:46:29.050Z,7292.00
2023-04-06T10:47:28.358Z,7428.00
2023-04-06T10:48:28.337Z,7692.00
2023-04-06T10:49:29.028Z,7724.00
2023-04-06T10:50:28.331Z,7864.00
2023-04-06T10:51:29.032Z,7868.00
2023-04-06T10:52:28.281Z,7732.00
2023-04-06T10:53:28.971Z,7616.00
2023-04-06T10:54:28.313Z,7712.00
2023-04-06T10:55:28.289Z,7620.00
2023-04-06T10:56:28.971Z,7544.00
2023-04-06T10:57:28.948Z,7464.00
2023-04-06T10:58:28.220Z,7432.00
2023-04-06T10:59:28.305Z,7408.00
2023-04-06T11:00:39.424Z,7428.00
2023-04-06T11:01:30.654Z,7540.00
2023-04-06T11:02:28.183Z,7592.00
2023-04-06T11:03:28.187Z,7576.00
2023-04-06T11:04:28.183Z,7556.00
2023-04-06T11:05:28.160Z,7748.00
2023-04-06T11:06:28.123Z,7904.00
2023-04-06T11:07:28.160Z,8016.00
2023-04-06T11:08:28.807Z,8056.00
2023-04-06T11:09:28.140Z,7952.00
2023-04-06T11:10:28.762Z,7788.00
2023-04-06T11:11:28.770Z,7752.00
2023-04-06T11:12:28.064Z,7808.00
2023-04-06T11:13:28.755Z,7852.00
2023-04-06T11:14:28.738Z,8060.00
2023-04-06T11:15:28.706Z,8120.00
2023-04-06T11:16:28.727Z,8148.00
2023-04-06T11:17:28.700Z,8180.00
2023-04-06T11:18:28.697Z,8044.00
2023-04-06T11:19:28.691Z,8116.00
2023-04-06T11:20:28.644Z,8152.00
2023-04-06T11:21:27.975Z,8100.00
2023-04-06T11:22:27.960Z,7940.00
2023-04-06T11:23:28.666Z,7928.00
2023-04-06T11:24:27.944Z,7720.00
2023-04-06T11:25:27.933Z,7852.00
2023-04-06T11:26:27.919Z,7864.00
2023-04-06T11:27:27.899Z,7732.00
2023-04-06T11:28:27.893Z,7668.00
2023-04-06T11:29:27.888Z,7784.00
2023-04-06T11:30:28.538Z,7792.00
2023-04-06T11:31:28.602Z,7544.00
2023-04-06T11:32:28.567Z,7460.00
2023-04-06T11:33:27.837Z,7388.00
2023-04-06T11:34:29.266Z,7316.00
2023-04-06T11:35:28.487Z,7164.00
2023-04-06T11:36:27.812Z,7096.00
2023-04-06T11:37:28.585Z,7024.00
2023-04-06T11:38:28.489Z,6984.00
2023-04-06T11:39:27.827Z,6968.00
2023-04-06T11:40:27.784Z,6956.00
2023-04-06T11:41:27.751Z,6924.00
2023-04-06T11:42:28.428Z,6924.00
2023-04-06T11:43:27.741Z,7028.00
2023-04-06T11:44:27.714Z,7084.00
2023-04-06T11:45:28.393Z,7108.00
2023-04-06T11:46:28.435Z,7084.00
2023-04-06T11:47:27.711Z,7056.00
2023-04-06T11:48:28.370Z,6940.00
2023-04-06T11:49:28.366Z,6828.00
2023-04-06T11:50:28.325Z,6796.00
2023-04-06T11:51:27.673Z,6832.00
2023-04-06T11:52:28.331Z,6904.00
2023-04-06T11:53:28.314Z,6940.00
2023-04-06T11:55:28.266Z,6984.00
2023-04-06T11:56:28.277Z,6936.00
2023-04-06T11:57:27.578Z,6900.00
2023-04-06T11:58:28.257Z,6844.00
2023-04-06T11:59:27.592Z,6784.00
2023-04-06T12:00:27.560Z,6720.00
2023-04-06T12:01:28.227Z,6676.00
2023-04-06T12:02:28.272Z,6680.00
2023-04-06T12:03:27.650Z,6760.00
2023-04-06T12:04:27.596Z,6752.00
2023-04-06T12:05:28.158Z,6752.00
2023-04-06T12:06:27.473Z,6712.00
2023-04-06T12:07:27.468Z,6712.00
2023-04-06T12:08:27.467Z,6716.00
2023-04-06T12:09:27.461Z,6672.00
2023-04-06T12:10:27.470Z,6644.00
2023-04-06T12:11:27.478Z,6600.00
2023-04-06T12:12:29.370Z,6616.00
2023-04-06T12:13:28.097Z,6608.00
2023-04-06T12:14:28.081Z,6616.00
2023-04-06T12:15:27.409Z,6620.00
2023-04-06T12:16:28.091Z,6692.00
2023-04-06T12:17:28.061Z,6800.00
2023-04-06T12:18:28.045Z,6864.00
2023-04-06T12:19:27.357Z,6888.00
2023-04-06T12:20:27.756Z,6900.00
2023-04-06T12:21:27.361Z,6864.00
2023-04-06T12:22:27.314Z,6832.00
2023-04-06T12:23:27.320Z,6812.00
2023-04-06T12:24:28.020Z,6732.00
2023-04-06T12:25:28.021Z,6672.00
2023-04-06T12:26:27.965Z,6680.00
2023-04-06T12:27:27.948Z,6616.00
2023-04-06T12:28:27.276Z,6556.00
2023-04-06T12:29:27.934Z,6496.00
2023-04-06T12:30:27.895Z,6420.00